| Back to River Map | <<< Previous Forecast Point | | | Next Forecast Point >>> | Printer Version | Graph Version |  |
|
MIDDLE FORK EEL RIVER - DOS RIOS (DOSC1)
| Latitude: 39.71º N | Longitude: 123.32º W | Elevation: 902 Feet | | Forecast Type: Unofficial Location |
| Location: Mendocino County in California | Bulletin Group: North Coast | River Group: North Coast |
| Issuance Time: | May 03 2026 at 8:48 AM PDT | Next Issuance: | May 04 2026 at 9:00 AM PDT
| |
| Action/Monitor: N/A | Minor Flood: N/A | Moderate Flood: N/A | Major Flood: N/A |
# Tabular Observed and Forecast Hydrograph Information
#
# Location: Middle Fork Eeel River - Dos Rios (DOSC1)
#
# File Generation Time: 05/03/2026 at 08:50 AM PDT
# Data Interval: 1 Hour
#
# Most Recent Date & Time of Maximum Observed: 04/28/2026 at 12:00 PM PDT
# Maximum Observed Stage: 6.31 Feet
# Maximum Observed Flow: 914 cfs
#
# Earliest Date & Time of Maximum Forecast: 05/03/2026 at 09:00 AM PDT
# Maximum Forecast Stage: 5.61 Feet
# Maximum Forecast Flow: 570 cfs
#
# OBSERVED
#
# Date & Time (Local) Stage (Feet) Flow (cfs) Trend Observed Status
# ---------------------------------------------------------------------------------
04/28/2026 08 AM PDT 6.30 907 Not Applicable
04/28/2026 09 AM PDT 6.30 907 0 Not Applicable
04/28/2026 10 AM PDT 6.30 907 0 Not Applicable
04/28/2026 11 AM PDT 6.31 914 + Not Applicable
04/28/2026 12 PM PDT 6.31 914 0 Not Applicable
04/28/2026 01 PM PDT 6.30 907 - Not Applicable
04/28/2026 02 PM PDT 6.29 901 - Not Applicable
04/28/2026 03 PM PDT 6.28 894 - Not Applicable
04/28/2026 04 PM PDT 6.26 882 - Not Applicable
04/28/2026 05 PM PDT 6.26 882 0 Not Applicable
04/28/2026 06 PM PDT 6.24 869 - Not Applicable
04/28/2026 07 PM PDT 6.23 863 - Not Applicable
04/28/2026 08 PM PDT 6.22 857 - Not Applicable
04/28/2026 09 PM PDT 6.21 851 - Not Applicable
04/28/2026 10 PM PDT 6.20 845 - Not Applicable
04/28/2026 11 PM PDT 6.19 838 - Not Applicable
04/29/2026 12 AM PDT 6.18 832 - Not Applicable
04/29/2026 01 AM PDT 6.17 826 - Not Applicable
04/29/2026 02 AM PDT 6.15 814 - Not Applicable
04/29/2026 03 AM PDT 6.15 814 0 Not Applicable
04/29/2026 04 AM PDT 6.14 808 - Not Applicable
04/29/2026 05 AM PDT 6.13 802 - Not Applicable
04/29/2026 06 AM PDT 6.13 802 0 Not Applicable
04/29/2026 07 AM PDT 6.12 797 - Not Applicable
04/29/2026 08 AM PDT 6.12 797 0 Not Applicable
04/29/2026 09 AM PDT 6.12 797 0 Not Applicable
04/29/2026 10 AM PDT 6.12 797 0 Not Applicable
04/29/2026 11 AM PDT 6.12 797 0 Not Applicable
04/29/2026 12 PM PDT 6.12 797 0 Not Applicable
04/29/2026 01 PM PDT 6.12 797 0 Not Applicable
04/29/2026 02 PM PDT 6.11 791 - Not Applicable
04/29/2026 03 PM PDT 6.11 791 0 Not Applicable
04/29/2026 04 PM PDT 6.10 785 - Not Applicable
04/29/2026 05 PM PDT 6.09 779 - Not Applicable
04/29/2026 06 PM PDT 6.08 773 - Not Applicable
04/29/2026 07 PM PDT 6.06 762 - Not Applicable
04/29/2026 08 PM PDT 6.06 762 0 Not Applicable
04/29/2026 09 PM PDT 6.05 756 - Not Applicable
04/29/2026 10 PM PDT 6.03 745 - Not Applicable
04/29/2026 11 PM PDT 6.03 745 0 Not Applicable
04/30/2026 12 AM PDT 6.02 739 - Not Applicable
04/30/2026 01 AM PDT 6.00 728 - Not Applicable
04/30/2026 02 AM PDT 5.99 723 - Not Applicable
04/30/2026 03 AM PDT 5.99 723 0 Not Applicable
04/30/2026 04 AM PDT 5.98 717 - Not Applicable
04/30/2026 05 AM PDT 5.97 712 - Not Applicable
04/30/2026 06 AM PDT 5.96 706 - Not Applicable
04/30/2026 07 AM PDT 5.95 701 - Not Applicable
04/30/2026 08 AM PDT 5.95 701 0 Not Applicable
04/30/2026 09 AM PDT 5.95 701 0 Not Applicable
04/30/2026 10 AM PDT 5.95 701 0 Not Applicable
04/30/2026 11 AM PDT 5.95 701 0 Not Applicable
04/30/2026 12 PM PDT 5.95 701 0 Not Applicable
04/30/2026 01 PM PDT 5.95 701 0 Not Applicable
04/30/2026 02 PM PDT 5.94 696 - Not Applicable
04/30/2026 03 PM PDT 5.94 696 0 Not Applicable
04/30/2026 04 PM PDT 5.93 692 - Not Applicable
04/30/2026 05 PM PDT 5.93 692 0 Not Applicable
04/30/2026 06 PM PDT 5.92 688 - Not Applicable
04/30/2026 07 PM PDT 5.91 684 - Not Applicable
04/30/2026 08 PM PDT 5.91 684 0 Not Applicable
04/30/2026 09 PM PDT 5.90 680 - Not Applicable
04/30/2026 10 PM PDT 5.89 676 - Not Applicable
04/30/2026 11 PM PDT 5.88 672 - Not Applicable
05/01/2026 12 AM PDT 5.88 672 0 Not Applicable
05/01/2026 01 AM PDT 5.87 668 - Not Applicable
05/01/2026 02 AM PDT 5.86 664 - Not Applicable
05/01/2026 03 AM PDT 5.85 660 - Not Applicable
05/01/2026 04 AM PDT 5.85 660 0 Not Applicable
05/01/2026 05 AM PDT 5.84 656 - Not Applicable
05/01/2026 06 AM PDT 5.83 653 - Not Applicable
05/01/2026 07 AM PDT 5.83 653 0 Not Applicable
05/01/2026 08 AM PDT 5.82 649 - Not Applicable
05/01/2026 09 AM PDT 5.82 649 0 Not Applicable
05/01/2026 10 AM PDT 5.82 649 0 Not Applicable
05/01/2026 11 AM PDT 5.82 649 0 Not Applicable
05/01/2026 12 PM PDT 5.82 649 0 Not Applicable
05/01/2026 01 PM PDT 5.81 645 - Not Applicable
05/01/2026 02 PM PDT 5.81 645 0 Not Applicable
05/01/2026 03 PM PDT 5.81 645 0 Not Applicable
05/01/2026 04 PM PDT 5.81 645 0 Not Applicable
05/01/2026 05 PM PDT 5.81 645 0 Not Applicable
05/01/2026 06 PM PDT 5.80 641 - Not Applicable
05/01/2026 07 PM PDT 5.79 637 - Not Applicable
05/01/2026 08 PM PDT 5.78 633 - Not Applicable
05/01/2026 09 PM PDT 5.78 633 0 Not Applicable
05/01/2026 10 PM PDT 5.78 633 0 Not Applicable
05/01/2026 11 PM PDT 5.77 630 - Not Applicable
05/02/2026 12 AM PDT 5.76 626 - Not Applicable
05/02/2026 01 AM PDT 5.75 622 - Not Applicable
05/02/2026 02 AM PDT 5.74 618 - Not Applicable
05/02/2026 03 AM PDT 5.74 618 0 Not Applicable
05/02/2026 04 AM PDT 5.73 614 - Not Applicable
05/02/2026 05 AM PDT 5.73 614 0 Not Applicable
05/02/2026 06 AM PDT 5.72 611 - Not Applicable
05/02/2026 07 AM PDT 5.71 607 - Not Applicable
05/02/2026 08 AM PDT 5.71 607 0 Not Applicable
05/02/2026 09 AM PDT 5.71 607 0 Not Applicable
05/02/2026 10 AM PDT 5.70 603 - Not Applicable
05/02/2026 11 AM PDT 5.71 607 + Not Applicable
05/02/2026 12 PM PDT 5.71 607 0 Not Applicable
05/02/2026 01 PM PDT 5.71 607 0 Not Applicable
05/02/2026 02 PM PDT 5.71 607 0 Not Applicable
05/02/2026 03 PM PDT 5.70 603 - Not Applicable
05/02/2026 04 PM PDT 5.70 603 0 Not Applicable
05/02/2026 05 PM PDT 5.70 603 0 Not Applicable
05/02/2026 06 PM PDT 5.69 600 - Not Applicable
05/02/2026 07 PM PDT 5.69 600 0 Not Applicable
05/02/2026 08 PM PDT 5.68 596 - Not Applicable
05/02/2026 09 PM PDT 5.68 596 0 Not Applicable
05/02/2026 10 PM PDT 5.67 592 - Not Applicable
05/02/2026 11 PM PDT 5.67 592 0 Not Applicable
05/03/2026 12 AM PDT 5.66 588 - Not Applicable
05/03/2026 01 AM PDT 5.66 588 0 Not Applicable
05/03/2026 02 AM PDT 5.65 585 - Not Applicable
05/03/2026 03 AM PDT 5.65 585 0 Not Applicable
05/03/2026 04 AM PDT 5.64 581 - Not Applicable
05/03/2026 05 AM PDT 5.63 578 - Not Applicable
05/03/2026 06 AM PDT 5.63 578 0 Not Applicable
05/03/2026 07 AM PDT 5.62 574 - Not Applicable
05/03/2026 08 AM PDT 5.62 574 0 Not Applicable
#
# FORECAST
#
# Date & Time (Local) Stage (Feet) Flow (cfs) Trend Forecast Status
# ---------------------------------------------------------------------------------
05/03/2026 09 AM PDT 5.61 570 Not Applicable
05/03/2026 10 AM PDT 5.60 567 - Not Applicable
05/03/2026 11 AM PDT 5.59 563 - Not Applicable
05/03/2026 12 PM PDT 5.59 563 0 Not Applicable
05/03/2026 01 PM PDT 5.58 560 - Not Applicable
05/03/2026 02 PM PDT 5.58 560 0 Not Applicable
05/03/2026 03 PM PDT 5.57 556 - Not Applicable
05/03/2026 04 PM PDT 5.56 553 - Not Applicable
05/03/2026 05 PM PDT 5.56 553 0 Not Applicable
05/03/2026 06 PM PDT 5.55 549 - Not Applicable
05/03/2026 07 PM PDT 5.54 546 - Not Applicable
05/03/2026 08 PM PDT 5.54 546 0 Not Applicable
05/03/2026 09 PM PDT 5.53 542 - Not Applicable
05/03/2026 10 PM PDT 5.53 542 0 Not Applicable
05/03/2026 11 PM PDT 5.52 539 - Not Applicable
05/04/2026 12 AM PDT 5.52 539 0 Not Applicable
05/04/2026 01 AM PDT 5.51 535 - Not Applicable
05/04/2026 02 AM PDT 5.51 535 0 Not Applicable
05/04/2026 03 AM PDT 5.50 532 - Not Applicable
05/04/2026 04 AM PDT 5.50 532 0 Not Applicable
05/04/2026 05 AM PDT 5.49 528 - Not Applicable
05/04/2026 06 AM PDT 5.49 528 0 Not Applicable
05/04/2026 07 AM PDT 5.48 525 - Not Applicable
05/04/2026 08 AM PDT 5.48 525 0 Not Applicable
05/04/2026 09 AM PDT 5.47 521 - Not Applicable
05/04/2026 10 AM PDT 5.47 521 0 Not Applicable
05/04/2026 11 AM PDT 5.46 518 - Not Applicable
05/04/2026 12 PM PDT 5.45 515 - Not Applicable
05/04/2026 01 PM PDT 5.45 515 0 Not Applicable
05/04/2026 02 PM PDT 5.44 511 - Not Applicable
05/04/2026 03 PM PDT 5.44 511 0 Not Applicable
05/04/2026 04 PM PDT 5.44 511 0 Not Applicable
05/04/2026 05 PM PDT 5.43 508 - Not Applicable
05/04/2026 06 PM PDT 5.43 508 0 Not Applicable
05/04/2026 07 PM PDT 5.43 508 0 Not Applicable
05/04/2026 08 PM PDT 5.43 508 0 Not Applicable
05/04/2026 09 PM PDT 5.43 508 0 Not Applicable
05/04/2026 10 PM PDT 5.44 511 + Not Applicable
05/04/2026 11 PM PDT 5.44 511 0 Not Applicable
05/05/2026 12 AM PDT 5.45 515 + Not Applicable
05/05/2026 01 AM PDT 5.45 515 0 Not Applicable
05/05/2026 02 AM PDT 5.46 518 + Not Applicable
05/05/2026 03 AM PDT 5.47 521 + Not Applicable
05/05/2026 04 AM PDT 5.48 525 + Not Applicable
05/05/2026 05 AM PDT 5.50 532 + Not Applicable
05/05/2026 06 AM PDT 5.51 535 + Not Applicable
05/05/2026 07 AM PDT 5.52 539 + Not Applicable
05/05/2026 08 AM PDT 5.52 539 0 Not Applicable
05/05/2026 09 AM PDT 5.52 539 0 Not Applicable
05/05/2026 10 AM PDT 5.51 535 - Not Applicable
05/05/2026 11 AM PDT 5.50 532 - Not Applicable
05/05/2026 12 PM PDT 5.48 525 - Not Applicable
05/05/2026 01 PM PDT 5.46 518 - Not Applicable
05/05/2026 02 PM PDT 5.45 515 - Not Applicable
05/05/2026 03 PM PDT 5.43 508 - Not Applicable
05/05/2026 04 PM PDT 5.41 501 - Not Applicable
05/05/2026 05 PM PDT 5.40 498 - Not Applicable
05/05/2026 06 PM PDT 5.38 491 - Not Applicable
05/05/2026 07 PM PDT 5.37 488 - Not Applicable
05/05/2026 08 PM PDT 5.36 485 - Not Applicable
05/05/2026 09 PM PDT 5.35 481 - Not Applicable
05/05/2026 10 PM PDT 5.33 475 - Not Applicable
05/05/2026 11 PM PDT 5.32 472 - Not Applicable
05/06/2026 12 AM PDT 5.31 468 - Not Applicable
05/06/2026 01 AM PDT 5.30 465 - Not Applicable
05/06/2026 02 AM PDT 5.30 465 0 Not Applicable
05/06/2026 03 AM PDT 5.29 462 - Not Applicable
05/06/2026 04 AM PDT 5.28 459 - Not Applicable
05/06/2026 05 AM PDT 5.27 456 - Not Applicable
05/06/2026 06 AM PDT 5.26 453 - Not Applicable
05/06/2026 07 AM PDT 5.26 453 0 Not Applicable
05/06/2026 08 AM PDT 5.25 450 - Not Applicable
05/06/2026 09 AM PDT 5.24 446 - Not Applicable
05/06/2026 10 AM PDT 5.24 446 0 Not Applicable
05/06/2026 11 AM PDT 5.23 443 - Not Applicable
05/06/2026 12 PM PDT 5.22 440 - Not Applicable
05/06/2026 01 PM PDT 5.22 440 0 Not Applicable
05/06/2026 02 PM PDT 5.21 437 - Not Applicable
05/06/2026 03 PM PDT 5.21 437 0 Not Applicable
05/06/2026 04 PM PDT 5.20 434 - Not Applicable
05/06/2026 05 PM PDT 5.19 431 - Not Applicable
05/06/2026 06 PM PDT 5.19 431 0 Not Applicable
05/06/2026 07 PM PDT 5.18 428 - Not Applicable
05/06/2026 08 PM PDT 5.18 428 0 Not Applicable
05/06/2026 09 PM PDT 5.17 425 - Not Applicable
05/06/2026 10 PM PDT 5.16 422 - Not Applicable
05/06/2026 11 PM PDT 5.16 422 0 Not Applicable
05/07/2026 12 AM PDT 5.15 419 - Not Applicable
05/07/2026 01 AM PDT 5.15 419 0 Not Applicable
05/07/2026 02 AM PDT 5.14 416 - Not Applicable
05/07/2026 03 AM PDT 5.14 416 0 Not Applicable
05/07/2026 04 AM PDT 5.13 412 - Not Applicable
05/07/2026 05 AM PDT 5.13 412 0 Not Applicable
05/07/2026 06 AM PDT 5.12 409 - Not Applicable
05/07/2026 07 AM PDT 5.12 409 0 Not Applicable
05/07/2026 08 AM PDT 5.11 406 - Not Applicable
05/07/2026 09 AM PDT 5.11 406 0 Not Applicable
05/07/2026 10 AM PDT 5.10 403 - Not Applicable
05/07/2026 11 AM PDT 5.10 403 0 Not Applicable
05/07/2026 12 PM PDT 5.09 400 - Not Applicable
05/07/2026 01 PM PDT 5.09 400 0 Not Applicable
05/07/2026 02 PM PDT 5.08 397 - Not Applicable
05/07/2026 03 PM PDT 5.08 397 0 Not Applicable
05/07/2026 04 PM PDT 5.08 397 0 Not Applicable
05/07/2026 05 PM PDT 5.07 394 - Not Applicable
05/07/2026 06 PM PDT 5.07 394 0 Not Applicable
05/07/2026 07 PM PDT 5.06 391 - Not Applicable
05/07/2026 08 PM PDT 5.06 391 0 Not Applicable
05/07/2026 09 PM PDT 5.05 388 - Not Applicable
05/07/2026 10 PM PDT 5.05 388 0 Not Applicable
05/07/2026 11 PM PDT 5.05 388 0 Not Applicable
05/08/2026 12 AM PDT 5.04 385 - Not Applicable
05/08/2026 01 AM PDT 5.04 385 0 Not Applicable
05/08/2026 02 AM PDT 5.03 382 - Not Applicable
05/08/2026 03 AM PDT 5.03 382 0 Not Applicable
05/08/2026 04 AM PDT 5.03 382 0 Not Applicable
05/08/2026 05 AM PDT 5.02 380 - Not Applicable
#
# NOTE 1: Stages are rounded to the nearest hundredth (.01) of a foot.
# NOTE 2: Flows are rounded to the nearest (1) cfs.
# NOTE 3: Trends are determined using hourly change in unrounded stage and flow.
# NOTE 4: Maximum Values are determined using unrounded stage and flow.
|